sensor_id;sensor_type;location;lat;lon;timestamp;P1;durP1;ratioP1;P2;durP2;ratioP2
37141;SDS011;23041;49.816;20.092;2022-11-14T00:03:07;36.33;;;24.12;;
37141;SDS011;23041;49.816;20.092;2022-11-14T00:05:42;36.20;;;23.57;;
37141;SDS011;23041;49.816;20.092;2022-11-14T00:08:20;35.05;;;23.45;;
37141;SDS011;23041;49.816;20.092;2022-11-14T00:10:45;32.33;;;22.58;;
37141;SDS011;23041;49.816;20.092;2022-11-14T00:13:14;35.27;;;24.93;;
37141;SDS011;23041;49.816;20.092;2022-11-14T00:15:42;30.65;;;23.32;;
37141;SDS011;23041;49.816;20.092;2022-11-14T00:18:10;32.80;;;22.73;;
37141;SDS011;23041;49.816;20.092;2022-11-14T00:20:36;38.85;;;24.40;;
37141;SDS011;23041;49.816;20.092;2022-11-14T00:23:03;37.40;;;26.15;;
37141;SDS011;23041;49.816;20.092;2022-11-14T00:25:30;36.05;;;23.00;;
37141;SDS011;23041;49.816;20.092;2022-11-14T00:27:57;35.38;;;24.92;;
37141;SDS011;23041;49.816;20.092;2022-11-14T00:30:24;37.93;;;25.27;;
37141;SDS011;23041;49.816;20.092;2022-11-14T00:32:52;35.50;;;23.47;;
37141;SDS011;23041;49.816;20.092;2022-11-14T00:35:18;30.30;;;20.77;;
37141;SDS011;23041;49.816;20.092;2022-11-14T00:37:44;25.15;;;19.57;;
37141;SDS011;23041;49.816;20.092;2022-11-14T00:40:11;30.90;;;21.40;;
37141;SDS011;23041;49.816;20.092;2022-11-14T00:42:39;35.73;;;22.30;;
37141;SDS011;23041;49.816;20.092;2022-11-14T00:45:05;31.02;;;22.58;;
37141;SDS011;23041;49.816;20.092;2022-11-14T00:47:32;34.65;;;23.10;;
37141;SDS011;23041;49.816;20.092;2022-11-14T00:49:58;28.10;;;19.85;;
37141;SDS011;23041;49.816;20.092;2022-11-14T00:52:24;26.10;;;20.20;;
37141;SDS011;23041;49.816;20.092;2022-11-14T00:54:51;29.18;;;20.60;;
37141;SDS011;23041;49.816;20.092;2022-11-14T00:57:17;36.10;;;22.13;;
37141;SDS011;23041;49.816;20.092;2022-11-14T00:59:43;38.58;;;22.93;;
37141;SDS011;23041;49.816;20.092;2022-11-14T01:02:10;38.70;;;23.98;;
37141;SDS011;23041;49.816;20.092;2022-11-14T01:04:36;33.70;;;22.70;;
37141;SDS011;23041;49.816;20.092;2022-11-14T01:07:03;38.60;;;24.00;;
37141;SDS011;23041;49.816;20.092;2022-11-14T01:09:29;43.15;;;26.15;;
37141;SDS011;23041;49.816;20.092;2022-11-14T01:11:56;40.73;;;26.30;;
37141;SDS011;23041;49.816;20.092;2022-11-14T01:14:22;45.43;;;27.65;;
37141;SDS011;23041;49.816;20.092;2022-11-14T01:16:49;41.65;;;26.82;;
37141;SDS011;23041;49.816;20.092;2022-11-14T01:19:15;42.62;;;28.07;;
37141;SDS011;23041;49.816;20.092;2022-11-14T01:21:41;46.90;;;29.72;;
37141;SDS011;23041;49.816;20.092;2022-11-14T01:24:08;47.55;;;27.73;;
37141;SDS011;23041;49.816;20.092;2022-11-14T01:26:34;47.48;;;29.00;;
37141;SDS011;23041;49.816;20.092;2022-11-14T01:29:01;35.25;;;24.10;;
37141;SDS011;23041;49.816;20.092;2022-11-14T01:31:27;37.70;;;24.37;;
37141;SDS011;23041;49.816;20.092;2022-11-14T01:33:53;37.23;;;24.37;;
37141;SDS011;23041;49.816;20.092;2022-11-14T01:36:20;34.65;;;23.60;;
37141;SDS011;23041;49.816;20.092;2022-11-14T01:38:50;40.55;;;24.65;;
37141;SDS011;23041;49.816;20.092;2022-11-14T01:41:18;37.40;;;23.92;;
37141;SDS011;23041;49.816;20.092;2022-11-14T01:43:45;32.00;;;21.68;;
37141;SDS011;23041;49.816;20.092;2022-11-14T01:46:29;35.28;;;22.17;;
37141;SDS011;23041;49.816;20.092;2022-11-14T01:51:49;36.10;;;22.58;;
37141;SDS011;23041;49.816;20.092;2022-11-14T01:54:28;35.10;;;21.23;;
37141;SDS011;23041;49.816;20.092;2022-11-14T01:56:58;28.90;;;20.05;;
37141;SDS011;23041;49.816;20.092;2022-11-14T01:59:29;28.07;;;20.45;;
37141;SDS011;23041;49.816;20.092;2022-11-14T02:01:59;28.98;;;19.37;;
37141;SDS011;23041;49.816;20.092;2022-11-14T02:04:30;30.60;;;21.65;;
37141;SDS011;23041;49.816;20.092;2022-11-14T02:07:05;32.35;;;21.40;;
37141;SDS011;23041;49.816;20.092;2022-11-14T02:09:34;27.48;;;20.00;;
37141;SDS011;23041;49.816;20.092;2022-11-14T02:12:03;36.03;;;21.82;;
37141;SDS011;23041;49.816;20.092;2022-11-14T02:14:33;31.15;;;21.35;;
37141;SDS011;23041;49.816;20.092;2022-11-14T02:17:02;27.58;;;20.90;;
37141;SDS011;23041;49.816;20.092;2022-11-14T02:19:48;33.70;;;21.75;;
37141;SDS011;23041;49.816;20.092;2022-11-14T02:22:22;31.25;;;20.75;;
37141;SDS011;23041;49.816;20.092;2022-11-14T02:24:48;29.70;;;20.12;;
37141;SDS011;23041;49.816;20.092;2022-11-14T02:27:15;31.12;;;18.98;;
37141;SDS011;23041;49.816;20.092;2022-11-14T02:29:41;25.72;;;18.30;;
37141;SDS011;23041;49.816;20.092;2022-11-14T02:32:08;24.50;;;18.87;;
37141;SDS011;23041;49.816;20.092;2022-11-14T02:34:34;26.23;;;18.75;;
37141;SDS011;23041;49.816;20.092;2022-11-14T02:37:00;23.50;;;18.65;;
37141;SDS011;23041;49.816;20.092;2022-11-14T02:39:26;27.48;;;19.65;;
37141;SDS011;23041;49.816;20.092;2022-11-14T02:41:53;24.67;;;18.80;;
37141;SDS011;23041;49.816;20.092;2022-11-14T02:44:19;24.85;;;18.77;;
37141;SDS011;23041;49.816;20.092;2022-11-14T02:46:46;26.57;;;18.67;;
37141;SDS011;23041;49.816;20.092;2022-11-14T02:49:12;22.32;;;17.12;;
37141;SDS011;23041;49.816;20.092;2022-11-14T02:51:39;24.47;;;17.48;;
37141;SDS011;23041;49.816;20.092;2022-11-14T02:54:05;20.75;;;17.35;;
37141;SDS011;23041;49.816;20.092;2022-11-14T02:56:32;28.02;;;17.62;;
37141;SDS011;23041;49.816;20.092;2022-11-14T02:58:59;20.80;;;16.45;;
37141;SDS011;23041;49.816;20.092;2022-11-14T03:01:25;25.27;;;17.10;;
37141;SDS011;23041;49.816;20.092;2022-11-14T03:03:52;25.35;;;16.35;;
37141;SDS011;23041;49.816;20.092;2022-11-14T03:06:18;22.82;;;15.75;;
37141;SDS011;23041;49.816;20.092;2022-11-14T03:08:44;21.80;;;15.63;;
37141;SDS011;23041;49.816;20.092;2022-11-14T03:11:11;19.87;;;14.90;;
37141;SDS011;23041;49.816;20.092;2022-11-14T03:13:37;19.82;;;15.03;;
37141;SDS011;23041;49.816;20.092;2022-11-14T03:16:04;18.73;;;14.33;;
37141;SDS011;23041;49.816;20.092;2022-11-14T03:18:36;18.67;;;15.28;;
37141;SDS011;23041;49.816;20.092;2022-11-14T03:21:10;20.12;;;16.52;;
37141;SDS011;23041;49.816;20.092;2022-11-14T03:23:40;21.90;;;15.90;;
37141;SDS011;23041;49.816;20.092;2022-11-14T03:26:08;27.80;;;15.03;;
37141;SDS011;23041;49.816;20.092;2022-11-14T03:28:36;21.20;;;15.60;;
37141;SDS011;23041;49.816;20.092;2022-11-14T03:31:03;20.55;;;15.00;;
37141;SDS011;23041;49.816;20.092;2022-11-14T03:33:31;23.38;;;15.48;;
37141;SDS011;23041;49.816;20.092;2022-11-14T03:35:57;21.45;;;15.78;;
37141;SDS011;23041;49.816;20.092;2022-11-14T03:38:24;26.20;;;16.17;;
37141;SDS011;23041;49.816;20.092;2022-11-14T03:40:50;24.40;;;17.15;;
37141;SDS011;23041;49.816;20.092;2022-11-14T03:43:17;20.10;;;16.45;;
37141;SDS011;23041;49.816;20.092;2022-11-14T03:45:46;27.17;;;17.65;;
37141;SDS011;23041;49.816;20.092;2022-11-14T03:48:12;25.02;;;18.07;;
37141;SDS011;23041;49.816;20.092;2022-11-14T03:50:39;43.38;;;30.17;;
37141;SDS011;23041;49.816;20.092;2022-11-14T03:53:07;51.95;;;29.87;;
37141;SDS011;23041;49.816;20.092;2022-11-14T03:55:33;24.45;;;17.12;;
37141;SDS011;23041;49.816;20.092;2022-11-14T03:58:00;17.42;;;13.93;;
37141;SDS011;23041;49.816;20.092;2022-11-14T04:00:26;20.10;;;14.78;;
37141;SDS011;23041;49.816;20.092;2022-11-14T04:02:53;18.65;;;13.58;;
37141;SDS011;23041;49.816;20.092;2022-11-14T04:05:21;18.37;;;14.43;;
37141;SDS011;23041;49.816;20.092;2022-11-14T04:07:48;17.12;;;13.98;;
37141;SDS011;23041;49.816;20.092;2022-11-14T04:10:14;17.57;;;14.07;;
37141;SDS011;23041;49.816;20.092;2022-11-14T04:12:51;20.30;;;15.38;;
37141;SDS011;23041;49.816;20.092;2022-11-14T04:15:14;19.57;;;13.98;;
37141;SDS011;23041;49.816;20.092;2022-11-14T04:17:42;17.23;;;14.45;;
37141;SDS011;23041;49.816;20.092;2022-11-14T04:20:09;21.73;;;14.85;;
37141;SDS011;23041;49.816;20.092;2022-11-14T04:22:36;23.65;;;16.37;;
37141;SDS011;23041;49.816;20.092;2022-11-14T04:25:02;23.00;;;16.25;;
37141;SDS011;23041;49.816;20.092;2022-11-14T04:27:30;23.65;;;16.97;;
37141;SDS011;23041;49.816;20.092;2022-11-14T04:29:56;31.15;;;19.30;;
37141;SDS011;23041;49.816;20.092;2022-11-14T04:32:23;28.47;;;20.75;;
37141;SDS011;23041;49.816;20.092;2022-11-14T04:34:49;28.73;;;21.60;;
37141;SDS011;23041;49.816;20.092;2022-11-14T04:37:15;23.32;;;17.90;;
37141;SDS011;23041;49.816;20.092;2022-11-14T04:39:42;23.45;;;17.57;;
37141;SDS011;23041;49.816;20.092;2022-11-14T04:42:08;25.35;;;17.37;;
37141;SDS011;23041;49.816;20.092;2022-11-14T04:44:34;23.27;;;17.10;;
37141;SDS011;23041;49.816;20.092;2022-11-14T04:47:01;21.10;;;16.80;;
37141;SDS011;23041;49.816;20.092;2022-11-14T04:49:27;21.48;;;16.32;;
37141;SDS011;23041;49.816;20.092;2022-11-14T04:51:54;26.60;;;18.32;;
37141;SDS011;23041;49.816;20.092;2022-11-14T04:54:20;28.15;;;18.82;;
37141;SDS011;23041;49.816;20.092;2022-11-14T04:56:47;27.65;;;18.57;;
37141;SDS011;23041;49.816;20.092;2022-11-14T04:59:13;23.10;;;15.75;;
37141;SDS011;23041;49.816;20.092;2022-11-14T05:01:40;25.37;;;17.27;;
37141;SDS011;23041;49.816;20.092;2022-11-14T05:04:06;21.85;;;16.52;;
37141;SDS011;23041;49.816;20.092;2022-11-14T05:06:33;18.67;;;15.23;;
37141;SDS011;23041;49.816;20.092;2022-11-14T05:08:59;17.62;;;13.28;;
37141;SDS011;23041;49.816;20.092;2022-11-14T05:11:25;18.20;;;13.08;;
37141;SDS011;23041;49.816;20.092;2022-11-14T05:13:52;18.12;;;13.48;;
37141;SDS011;23041;49.816;20.092;2022-11-14T05:16:18;14.47;;;12.60;;
37141;SDS011;23041;49.816;20.092;2022-11-14T05:18:45;15.30;;;12.33;;
37141;SDS011;23041;49.816;20.092;2022-11-14T05:21:15;15.53;;;12.30;;
37141;SDS011;23041;49.816;20.092;2022-11-14T05:23:40;15.80;;;12.00;;
37141;SDS011;23041;49.816;20.092;2022-11-14T05:26:07;20.65;;;16.82;;
37141;SDS011;23041;49.816;20.092;2022-11-14T05:28:36;55.90;;;37.90;;
37141;SDS011;23041;49.816;20.092;2022-11-14T05:31:03;52.27;;;37.98;;
37141;SDS011;23041;49.816;20.092;2022-11-14T05:33:33;34.23;;;25.68;;
37141;SDS011;23041;49.816;20.092;2022-11-14T05:36:03;26.48;;;20.60;;
37141;SDS011;23041;49.816;20.092;2022-11-14T05:38:32;18.90;;;16.10;;
37141;SDS011;23041;49.816;20.092;2022-11-14T05:40:58;17.30;;;14.25;;
37141;SDS011;23041;49.816;20.092;2022-11-14T05:43:28;17.65;;;14.15;;
37141;SDS011;23041;49.816;20.092;2022-11-14T05:46:05;22.37;;;17.00;;
37141;SDS011;23041;49.816;20.092;2022-11-14T05:48:27;30.40;;;20.23;;
37141;SDS011;23041;49.816;20.092;2022-11-14T05:50:54;24.07;;;16.07;;
37141;SDS011;23041;49.816;20.092;2022-11-14T05:53:22;20.72;;;14.68;;
37141;SDS011;23041;49.816;20.092;2022-11-14T05:55:48;21.10;;;15.48;;
37141;SDS011;23041;49.816;20.092;2022-11-14T05:58:14;22.25;;;15.75;;
37141;SDS011;23041;49.816;20.092;2022-11-14T06:00:41;19.67;;;15.05;;
37141;SDS011;23041;49.816;20.092;2022-11-14T06:03:07;23.02;;;16.32;;
37141;SDS011;23041;49.816;20.092;2022-11-14T06:05:34;21.90;;;16.12;;
37141;SDS011;23041;49.816;20.092;2022-11-14T06:08:01;22.40;;;15.63;;
37141;SDS011;23041;49.816;20.092;2022-11-14T06:10:28;23.18;;;16.45;;
37141;SDS011;23041;49.816;20.092;2022-11-14T06:12:54;32.25;;;15.50;;
37141;SDS011;23041;49.816;20.092;2022-11-14T06:15:21;29.25;;;15.38;;
37141;SDS011;23041;49.816;20.092;2022-11-14T06:17:47;33.45;;;17.67;;
37141;SDS011;23041;49.816;20.092;2022-11-14T06:20:13;22.37;;;16.37;;
37141;SDS011;23041;49.816;20.092;2022-11-14T06:22:40;21.52;;;15.83;;
37141;SDS011;23041;49.816;20.092;2022-11-14T06:25:07;20.17;;;15.18;;
37141;SDS011;23041;49.816;20.092;2022-11-14T06:27:34;19.37;;;15.68;;
37141;SDS011;23041;49.816;20.092;2022-11-14T06:30:00;22.27;;;16.60;;
37141;SDS011;23041;49.816;20.092;2022-11-14T06:32:27;23.32;;;16.80;;
37141;SDS011;23041;49.816;20.092;2022-11-14T06:34:53;20.85;;;16.40;;
37141;SDS011;23041;49.816;20.092;2022-11-14T06:37:20;26.37;;;16.62;;
37141;SDS011;23041;49.816;20.092;2022-11-14T06:39:46;26.93;;;16.62;;
37141;SDS011;23041;49.816;20.092;2022-11-14T06:42:14;29.75;;;15.65;;
37141;SDS011;23041;49.816;20.092;2022-11-14T06:44:41;27.27;;;15.75;;
37141;SDS011;23041;49.816;20.092;2022-11-14T06:47:07;27.27;;;14.00;;
37141;SDS011;23041;49.816;20.092;2022-11-14T06:49:34;24.47;;;13.60;;
37141;SDS011;23041;49.816;20.092;2022-11-14T06:52:00;28.42;;;13.30;;
37141;SDS011;23041;49.816;20.092;2022-11-14T06:54:27;18.10;;;12.43;;
37141;SDS011;23041;49.816;20.092;2022-11-14T06:56:53;21.68;;;13.35;;
37141;SDS011;23041;49.816;20.092;2022-11-14T06:59:19;16.95;;;13.35;;
37141;SDS011;23041;49.816;20.092;2022-11-14T07:01:46;19.05;;;13.90;;
37141;SDS011;23041;49.816;20.092;2022-11-14T07:04:12;20.88;;;14.60;;
37141;SDS011;23041;49.816;20.092;2022-11-14T07:06:39;24.02;;;14.43;;
37141;SDS011;23041;49.816;20.092;2022-11-14T07:09:05;28.57;;;15.13;;
37141;SDS011;23041;49.816;20.092;2022-11-14T07:11:33;32.03;;;16.62;;
37141;SDS011;23041;49.816;20.092;2022-11-14T07:14:00;23.42;;;15.95;;
37141;SDS011;23041;49.816;20.092;2022-11-14T07:16:29;21.57;;;15.18;;
37141;SDS011;23041;49.816;20.092;2022-11-14T07:19:00;24.65;;;15.72;;
37141;SDS011;23041;49.816;20.092;2022-11-14T07:21:29;24.80;;;15.98;;
37141;SDS011;23041;49.816;20.092;2022-11-14T07:23:57;23.22;;;16.42;;
37141;SDS011;23041;49.816;20.092;2022-11-14T07:26:24;25.90;;;16.05;;
37141;SDS011;23041;49.816;20.092;2022-11-14T07:28:50;22.50;;;16.05;;
37141;SDS011;23041;49.816;20.092;2022-11-14T07:31:17;27.20;;;15.95;;
37141;SDS011;23041;49.816;20.092;2022-11-14T07:33:45;24.07;;;16.52;;
37141;SDS011;23041;49.816;20.092;2022-11-14T07:36:12;25.68;;;18.05;;
37141;SDS011;23041;49.816;20.092;2022-11-14T07:38:40;18.17;;;13.80;;
37141;SDS011;23041;49.816;20.092;2022-11-14T07:41:10;18.95;;;14.25;;
37141;SDS011;23041;49.816;20.092;2022-11-14T07:43:39;14.68;;;12.58;;
37141;SDS011;23041;49.816;20.092;2022-11-14T07:46:16;18.73;;;14.25;;
37141;SDS011;23041;49.816;20.092;2022-11-14T07:48:39;18.70;;;13.20;;
37141;SDS011;23041;49.816;20.092;2022-11-14T07:51:07;21.05;;;14.33;;
37141;SDS011;23041;49.816;20.092;2022-11-14T07:53:38;19.85;;;13.90;;
37141;SDS011;23041;49.816;20.092;2022-11-14T07:56:04;20.82;;;14.15;;
37141;SDS011;23041;49.816;20.092;2022-11-14T07:58:36;22.05;;;14.10;;
37141;SDS011;23041;49.816;20.092;2022-11-14T08:01:04;16.15;;;13.53;;
37141;SDS011;23041;49.816;20.092;2022-11-14T08:03:32;22.25;;;15.20;;
37141;SDS011;23041;49.816;20.092;2022-11-14T08:06:07;24.82;;;16.12;;
37141;SDS011;23041;49.816;20.092;2022-11-14T08:08:32;18.77;;;15.10;;
37141;SDS011;23041;49.816;20.092;2022-11-14T08:10:59;22.25;;;15.60;;
37141;SDS011;23041;49.816;20.092;2022-11-14T08:13:26;30.10;;;16.15;;
37141;SDS011;23041;49.816;20.092;2022-11-14T08:15:53;29.48;;;16.32;;
37141;SDS011;23041;49.816;20.092;2022-11-14T08:18:20;36.83;;;18.37;;
37141;SDS011;23041;49.816;20.092;2022-11-14T08:20:47;35.40;;;19.27;;
37141;SDS011;23041;49.816;20.092;2022-11-14T08:23:13;34.65;;;18.25;;
37141;SDS011;23041;49.816;20.092;2022-11-14T08:25:40;31.45;;;17.90;;
37141;SDS011;23041;49.816;20.092;2022-11-14T08:28:07;28.65;;;18.17;;
37141;SDS011;23041;49.816;20.092;2022-11-14T08:30:33;28.25;;;18.42;;
37141;SDS011;23041;49.816;20.092;2022-11-14T08:33:00;24.18;;;18.15;;
37141;SDS011;23041;49.816;20.092;2022-11-14T08:35:29;26.57;;;17.27;;
37141;SDS011;23041;49.816;20.092;2022-11-14T08:37:55;23.18;;;17.00;;
37141;SDS011;23041;49.816;20.092;2022-11-14T08:40:22;32.63;;;18.00;;
37141;SDS011;23041;49.816;20.092;2022-11-14T08:42:48;30.45;;;17.45;;
37141;SDS011;23041;49.816;20.092;2022-11-14T08:45:15;41.37;;;17.77;;
37141;SDS011;23041;49.816;20.092;2022-11-14T08:47:42;26.95;;;17.30;;
37141;SDS011;23041;49.816;20.092;2022-11-14T08:50:12;29.82;;;17.50;;
37141;SDS011;23041;49.816;20.092;2022-11-14T08:52:38;25.17;;;17.73;;
37141;SDS011;23041;49.816;20.092;2022-11-14T08:55:04;27.02;;;18.62;;
37141;SDS011;23041;49.816;20.092;2022-11-14T08:57:32;22.42;;;16.42;;
37141;SDS011;23041;49.816;20.092;2022-11-14T08:59:58;25.90;;;17.80;;
37141;SDS011;23041;49.816;20.092;2022-11-14T09:02:24;27.22;;;17.90;;
37141;SDS011;23041;49.816;20.092;2022-11-14T09:04:51;25.50;;;18.52;;
37141;SDS011;23041;49.816;20.092;2022-11-14T09:07:17;25.65;;;17.40;;
37141;SDS011;23041;49.816;20.092;2022-11-14T09:09:43;27.50;;;18.55;;
37141;SDS011;23041;49.816;20.092;2022-11-14T09:12:09;31.68;;;18.10;;
37141;SDS011;23041;49.816;20.092;2022-11-14T09:14:36;32.88;;;18.20;;
37141;SDS011;23041;49.816;20.092;2022-11-14T09:17:02;29.10;;;17.52;;
37141;SDS011;23041;49.816;20.092;2022-11-14T09:19:28;30.08;;;19.77;;
37141;SDS011;23041;49.816;20.092;2022-11-14T09:21:55;29.52;;;18.50;;
37141;SDS011;23041;49.816;20.092;2022-11-14T09:24:21;23.02;;;17.27;;
37141;SDS011;23041;49.816;20.092;2022-11-14T09:26:49;23.65;;;18.25;;
37141;SDS011;23041;49.816;20.092;2022-11-14T09:29:17;27.17;;;20.15;;
37141;SDS011;23041;49.816;20.092;2022-11-14T09:31:43;27.22;;;19.87;;
37141;SDS011;23041;49.816;20.092;2022-11-14T09:34:10;25.62;;;19.67;;
37141;SDS011;23041;49.816;20.092;2022-11-14T09:36:36;21.35;;;18.35;;
37141;SDS011;23041;49.816;20.092;2022-11-14T09:39:03;24.67;;;19.90;;
37141;SDS011;23041;49.816;20.092;2022-11-14T09:47:03;28.67;;;21.95;;
37141;SDS011;23041;49.816;20.092;2022-11-14T09:49:37;24.02;;;19.70;;
37141;SDS011;23041;49.816;20.092;2022-11-14T09:54:58;22.73;;;18.60;;
37141;SDS011;23041;49.816;20.092;2022-11-14T09:57:29;24.72;;;19.45;;
37141;SDS011;23041;49.816;20.092;2022-11-14T09:59:55;25.77;;;20.43;;
37141;SDS011;23041;49.816;20.092;2022-11-14T10:26:26;24.50;;;18.85;;
37141;SDS011;23041;49.816;20.092;2022-11-14T10:31:47;33.05;;;21.07;;
37141;SDS011;23041;49.816;20.092;2022-11-14T10:34:22;28.47;;;21.68;;
37141;SDS011;23041;49.816;20.092;2022-11-14T10:37:22;28.32;;;21.07;;
37141;SDS011;23041;49.816;20.092;2022-11-14T10:39:38;29.60;;;21.37;;
37141;SDS011;23041;49.816;20.092;2022-11-14T10:42:12;28.02;;;21.65;;
37141;SDS011;23041;49.816;20.092;2022-11-14T10:44:50;28.87;;;22.77;;
37141;SDS011;23041;49.816;20.092;2022-11-14T10:47:52;31.42;;;23.25;;
37141;SDS011;23041;49.816;20.092;2022-11-14T10:50:59;26.45;;;20.68;;
37141;SDS011;23041;49.816;20.092;2022-11-14T10:53:56;27.37;;;20.65;;
37141;SDS011;23041;49.816;20.092;2022-11-14T10:56:22;28.73;;;21.87;;
37141;SDS011;23041;49.816;20.092;2022-11-14T10:58:49;25.27;;;21.15;;
37141;SDS011;23041;49.816;20.092;2022-11-14T11:07:20;29.40;;;21.35;;
37141;SDS011;23041;49.816;20.092;2022-11-14T11:09:42;29.57;;;22.58;;
37141;SDS011;23041;49.816;20.092;2022-11-14T11:17:56;32.90;;;23.55;;
37141;SDS011;23041;49.816;20.092;2022-11-14T11:25:39;27.35;;;21.35;;
37141;SDS011;23041;49.816;20.092;2022-11-14T11:28:12;26.73;;;21.30;;
37141;SDS011;23041;49.816;20.092;2022-11-14T11:33:26;28.20;;;22.10;;
37141;SDS011;23041;49.816;20.092;2022-11-14T11:35:55;35.98;;;24.45;;
37141;SDS011;23041;49.816;20.092;2022-11-14T11:38:28;33.70;;;25.25;;
37141;SDS011;23041;49.816;20.092;2022-11-14T11:41:18;34.35;;;25.62;;
37141;SDS011;23041;49.816;20.092;2022-11-14T11:49:10;30.27;;;23.25;;
37141;SDS011;23041;49.816;20.092;2022-11-14T11:51:57;32.67;;;23.70;;
37141;SDS011;23041;49.816;20.092;2022-11-14T11:54:29;33.67;;;24.72;;
37141;SDS011;23041;49.816;20.092;2022-11-14T11:57:02;31.50;;;23.10;;
37141;SDS011;23041;49.816;20.092;2022-11-14T11:59:39;39.60;;;25.80;;
37141;SDS011;23041;49.816;20.092;2022-11-14T12:02:24;34.10;;;24.50;;
37141;SDS011;23041;49.816;20.092;2022-11-14T12:04:52;33.25;;;23.92;;
37141;SDS011;23041;49.816;20.092;2022-11-14T12:07:36;37.30;;;25.67;;
37141;SDS011;23041;49.816;20.092;2022-11-14T12:10:23;34.43;;;24.67;;
37141;SDS011;23041;49.816;20.092;2022-11-14T12:16:05;36.17;;;24.70;;
37141;SDS011;23041;49.816;20.092;2022-11-14T12:30:13;49.23;;;28.92;;
37141;SDS011;23041;49.816;20.092;2022-11-14T12:32:50;53.68;;;29.50;;
37141;SDS011;23041;49.816;20.092;2022-11-14T12:35:35;49.67;;;30.12;;
37141;SDS011;23041;49.816;20.092;2022-11-14T12:38:04;51.98;;;31.80;;
37141;SDS011;23041;49.816;20.092;2022-11-14T12:40:36;55.25;;;32.45;;
37141;SDS011;23041;49.816;20.092;2022-11-14T12:43:24;53.73;;;31.70;;
37141;SDS011;23041;49.816;20.092;2022-11-14T12:46:05;49.10;;;30.32;;
37141;SDS011;23041;49.816;20.092;2022-11-14T12:48:36;46.45;;;30.30;;
37141;SDS011;23041;49.816;20.092;2022-11-14T12:51:51;49.42;;;30.70;;
37141;SDS011;23041;49.816;20.092;2022-11-14T12:53:53;45.65;;;29.00;;
37141;SDS011;23041;49.816;20.092;2022-11-14T13:02:12;52.65;;;33.58;;
37141;SDS011;23041;49.816;20.092;2022-11-14T13:08:00;51.50;;;32.75;;
37141;SDS011;23041;49.816;20.092;2022-11-14T13:10:50;54.95;;;32.90;;
37141;SDS011;23041;49.816;20.092;2022-11-14T13:13:17;49.75;;;33.00;;
37141;SDS011;23041;49.816;20.092;2022-11-14T13:16:02;53.63;;;33.58;;
37141;SDS011;23041;49.816;20.092;2022-11-14T13:22:16;50.85;;;31.82;;
37141;SDS011;23041;49.816;20.092;2022-11-14T13:27:27;44.20;;;28.75;;
37141;SDS011;23041;49.816;20.092;2022-11-14T13:29:56;50.43;;;32.05;;
37141;SDS011;23041;49.816;20.092;2022-11-14T13:35:28;48.28;;;31.50;;
37141;SDS011;23041;49.816;20.092;2022-11-14T13:49:36;46.75;;;30.90;;
37141;SDS011;23041;49.816;20.092;2022-11-14T13:52:28;49.48;;;30.62;;
37141;SDS011;23041;49.816;20.092;2022-11-14T13:54:57;46.05;;;31.17;;
37141;SDS011;23041;49.816;20.092;2022-11-14T13:57:32;44.95;;;30.30;;
37141;SDS011;23041;49.816;20.092;2022-11-14T14:00:10;45.30;;;28.38;;
37141;SDS011;23041;49.816;20.092;2022-11-14T14:06:09;50.25;;;33.23;;
37141;SDS011;23041;49.816;20.092;2022-11-14T14:17:06;49.73;;;32.65;;
37141;SDS011;23041;49.816;20.092;2022-11-14T14:20:00;53.00;;;31.12;;
37141;SDS011;23041;49.816;20.092;2022-11-14T14:22:51;46.35;;;30.65;;
37141;SDS011;23041;49.816;20.092;2022-11-14T14:31:24;46.55;;;28.65;;
37141;SDS011;23041;49.816;20.092;2022-11-14T14:36:56;48.35;;;27.45;;
37141;SDS011;23041;49.816;20.092;2022-11-14T14:39:24;49.25;;;31.82;;
37141;SDS011;23041;49.816;20.092;2022-11-14T14:41:57;44.07;;;30.53;;
37141;SDS011;23041;49.816;20.092;2022-11-14T14:44:26;38.28;;;26.15;;
37141;SDS011;23041;49.816;20.092;2022-11-14T14:46:56;42.85;;;27.30;;
37141;SDS011;23041;49.816;20.092;2022-11-14T14:49:27;44.53;;;27.75;;
37141;SDS011;23041;49.816;20.092;2022-11-14T14:51:59;41.83;;;28.20;;
37141;SDS011;23041;49.816;20.092;2022-11-14T14:54:26;42.55;;;29.70;;
37141;SDS011;23041;49.816;20.092;2022-11-14T14:56:55;47.88;;;29.70;;
37141;SDS011;23041;49.816;20.092;2022-11-14T14:59:28;46.60;;;31.45;;
37141;SDS011;23041;49.816;20.092;2022-11-14T15:01:55;48.90;;;32.25;;
37141;SDS011;23041;49.816;20.092;2022-11-14T15:04:27;48.83;;;31.85;;
37141;SDS011;23041;49.816;20.092;2022-11-14T15:06:52;47.17;;;32.47;;
37141;SDS011;23041;49.816;20.092;2022-11-14T15:09:28;59.00;;;36.58;;
37141;SDS011;23041;49.816;20.092;2022-11-14T15:11:56;53.35;;;33.50;;
37141;SDS011;23041;49.816;20.092;2022-11-14T15:14:25;55.25;;;33.02;;
37141;SDS011;23041;49.816;20.092;2022-11-14T15:16:56;56.30;;;34.75;;
37141;SDS011;23041;49.816;20.092;2022-11-14T15:19:24;56.45;;;37.00;;
37141;SDS011;23041;49.816;20.092;2022-11-14T15:25:05;57.13;;;35.30;;
37141;SDS011;23041;49.816;20.092;2022-11-14T15:27:45;70.62;;;34.33;;
37141;SDS011;23041;49.816;20.092;2022-11-14T15:30:22;79.95;;;35.73;;
37141;SDS011;23041;49.816;20.092;2022-11-14T15:32:59;78.57;;;37.98;;
37141;SDS011;23041;49.816;20.092;2022-11-14T15:35:32;56.08;;;34.70;;
37141;SDS011;23041;49.816;20.092;2022-11-14T15:38:56;58.75;;;34.23;;
37141;SDS011;23041;49.816;20.092;2022-11-14T15:40:39;52.95;;;32.85;;
37141;SDS011;23041;49.816;20.092;2022-11-14T15:49:09;58.38;;;36.85;;
37141;SDS011;23041;49.816;20.092;2022-11-14T15:51:44;68.07;;;37.38;;
37141;SDS011;23041;49.816;20.092;2022-11-14T15:56:59;64.03;;;36.30;;
37141;SDS011;23041;49.816;20.092;2022-11-14T15:59:41;60.90;;;38.85;;
37141;SDS011;23041;49.816;20.092;2022-11-14T16:04:57;59.65;;;35.70;;
37141;SDS011;23041;49.816;20.092;2022-11-14T16:07:25;50.33;;;32.17;;
37141;SDS011;23041;49.816;20.092;2022-11-14T16:09:52;57.25;;;33.88;;
37141;SDS011;23041;49.816;20.092;2022-11-14T16:12:19;58.00;;;33.78;;
37141;SDS011;23041;49.816;20.092;2022-11-14T16:14:46;55.65;;;35.63;;
37141;SDS011;23041;49.816;20.092;2022-11-14T16:17:13;63.60;;;36.63;;
37141;SDS011;23041;49.816;20.092;2022-11-14T16:19:41;59.55;;;37.05;;
37141;SDS011;23041;49.816;20.092;2022-11-14T16:22:11;63.87;;;38.05;;
37141;SDS011;23041;49.816;20.092;2022-11-14T16:24:40;61.70;;;37.55;;
37141;SDS011;23041;49.816;20.092;2022-11-14T16:27:07;67.95;;;39.53;;
37141;SDS011;23041;49.816;20.092;2022-11-14T16:29:33;59.70;;;37.58;;
37141;SDS011;23041;49.816;20.092;2022-11-14T16:32:00;61.20;;;36.93;;
37141;SDS011;23041;49.816;20.092;2022-11-14T16:34:27;60.30;;;36.55;;
37141;SDS011;23041;49.816;20.092;2022-11-14T16:36:57;54.73;;;34.18;;
37141;SDS011;23041;49.816;20.092;2022-11-14T16:39:26;59.67;;;37.03;;
37141;SDS011;23041;49.816;20.092;2022-11-14T16:41:52;55.95;;;34.88;;
37141;SDS011;23041;49.816;20.092;2022-11-14T16:44:28;57.03;;;34.18;;
37141;SDS011;23041;49.816;20.092;2022-11-14T16:46:55;62.58;;;37.30;;